sensor_id;sensor_type;location;lat;lon;timestamp;P1;durP1;ratioP1;P2;durP2;ratioP2
15764;SDS011;7983;50.744;7.086;2022-12-07T00:01:53;14.63;;;10.77;;
15764;SDS011;7983;50.744;7.086;2022-12-07T00:04:18;13.63;;;9.07;;
15764;SDS011;7983;50.744;7.086;2022-12-07T00:06:45;11.60;;;8.93;;
15764;SDS011;7983;50.744;7.086;2022-12-07T00:09:15;14.03;;;9.50;;
15764;SDS011;7983;50.744;7.086;2022-12-07T00:11:42;13.30;;;9.13;;
15764;SDS011;7983;50.744;7.086;2022-12-07T00:14:10;14.27;;;9.80;;
15764;SDS011;7983;50.744;7.086;2022-12-07T00:16:37;14.93;;;10.87;;
15764;SDS011;7983;50.744;7.086;2022-12-07T00:19:03;14.40;;;10.70;;
15764;SDS011;7983;50.744;7.086;2022-12-07T00:21:30;15.13;;;10.07;;
15764;SDS011;7983;50.744;7.086;2022-12-07T00:23:59;14.73;;;10.53;;
15764;SDS011;7983;50.744;7.086;2022-12-07T00:26:31;14.10;;;10.60;;
15764;SDS011;7983;50.744;7.086;2022-12-07T00:29:03;15.77;;;11.47;;
15764;SDS011;7983;50.744;7.086;2022-12-07T00:31:31;18.07;;;12.10;;
15764;SDS011;7983;50.744;7.086;2022-12-07T00:34:00;16.97;;;10.93;;
15764;SDS011;7983;50.744;7.086;2022-12-07T00:36:26;13.60;;;10.47;;
15764;SDS011;7983;50.744;7.086;2022-12-07T00:38:59;13.07;;;9.80;;
15764;SDS011;7983;50.744;7.086;2022-12-07T00:41:25;14.03;;;10.77;;
15764;SDS011;7983;50.744;7.086;2022-12-07T00:43:52;14.13;;;11.03;;
15764;SDS011;7983;50.744;7.086;2022-12-07T00:46:18;15.70;;;11.53;;
15764;SDS011;7983;50.744;7.086;2022-12-07T00:48:45;14.77;;;11.90;;
15764;SDS011;7983;50.744;7.086;2022-12-07T00:51:12;14.30;;;10.97;;
15764;SDS011;7983;50.744;7.086;2022-12-07T00:53:39;14.13;;;10.73;;
15764;SDS011;7983;50.744;7.086;2022-12-07T00:56:08;14.43;;;11.17;;
15764;SDS011;7983;50.744;7.086;2022-12-07T00:58:38;14.93;;;11.50;;
15764;SDS011;7983;50.744;7.086;2022-12-07T01:01:07;16.03;;;12.53;;
15764;SDS011;7983;50.744;7.086;2022-12-07T01:03:36;18.33;;;13.43;;
15764;SDS011;7983;50.744;7.086;2022-12-07T01:06:04;15.63;;;11.90;;
15764;SDS011;7983;50.744;7.086;2022-12-07T01:08:32;15.63;;;12.10;;
15764;SDS011;7983;50.744;7.086;2022-12-07T01:11:02;16.33;;;11.77;;
15764;SDS011;7983;50.744;7.086;2022-12-07T01:13:30;16.17;;;11.97;;
15764;SDS011;7983;50.744;7.086;2022-12-07T01:15:59;19.20;;;12.73;;
15764;SDS011;7983;50.744;7.086;2022-12-07T01:18:29;14.87;;;11.07;;
15764;SDS011;7983;50.744;7.086;2022-12-07T01:23:26;13.30;;;11.17;;
15764;SDS011;7983;50.744;7.086;2022-12-07T01:25:56;14.70;;;10.67;;
15764;SDS011;7983;50.744;7.086;2022-12-07T01:28:23;13.93;;;10.63;;
15764;SDS011;7983;50.744;7.086;2022-12-07T01:30:58;15.37;;;11.37;;
15764;SDS011;7983;50.744;7.086;2022-12-07T01:33:29;16.23;;;12.63;;
15764;SDS011;7983;50.744;7.086;2022-12-07T01:38:33;14.73;;;11.27;;
15764;SDS011;7983;50.744;7.086;2022-12-07T01:40:59;14.53;;;10.73;;
15764;SDS011;7983;50.744;7.086;2022-12-07T01:43:27;14.70;;;10.63;;
15764;SDS011;7983;50.744;7.086;2022-12-07T01:45:54;15.67;;;11.73;;
15764;SDS011;7983;50.744;7.086;2022-12-07T01:48:22;14.63;;;11.53;;
15764;SDS011;7983;50.744;7.086;2022-12-07T01:50:53;16.93;;;12.03;;
15764;SDS011;7983;50.744;7.086;2022-12-07T01:53:21;16.70;;;12.07;;
15764;SDS011;7983;50.744;7.086;2022-12-07T01:55:51;17.83;;;12.03;;
15764;SDS011;7983;50.744;7.086;2022-12-07T01:58:18;16.13;;;11.73;;
15764;SDS011;7983;50.744;7.086;2022-12-07T02:00:47;14.30;;;11.63;;
15764;SDS011;7983;50.744;7.086;2022-12-07T02:03:24;14.83;;;11.93;;
15764;SDS011;7983;50.744;7.086;2022-12-07T02:06:02;16.90;;;12.37;;
15764;SDS011;7983;50.744;7.086;2022-12-07T02:08:29;15.60;;;12.03;;
15764;SDS011;7983;50.744;7.086;2022-12-07T02:10:58;16.67;;;12.77;;
15764;SDS011;7983;50.744;7.086;2022-12-07T02:13:26;17.07;;;13.40;;
15764;SDS011;7983;50.744;7.086;2022-12-07T02:16:05;16.20;;;12.47;;
15764;SDS011;7983;50.744;7.086;2022-12-07T02:18:59;18.20;;;13.27;;
15764;SDS011;7983;50.744;7.086;2022-12-07T02:21:56;15.23;;;11.67;;
15764;SDS011;7983;50.744;7.086;2022-12-07T02:27:24;19.67;;;13.40;;
15764;SDS011;7983;50.744;7.086;2022-12-07T02:35:32;16.73;;;11.93;;
15764;SDS011;7983;50.744;7.086;2022-12-07T02:38:06;16.37;;;11.60;;
15764;SDS011;7983;50.744;7.086;2022-12-07T02:40:42;14.87;;;10.87;;
15764;SDS011;7983;50.744;7.086;2022-12-07T02:43:16;15.30;;;11.53;;
15764;SDS011;7983;50.744;7.086;2022-12-07T02:45:59;13.70;;;10.53;;
15764;SDS011;7983;50.744;7.086;2022-12-07T02:48:32;16.20;;;12.73;;
15764;SDS011;7983;50.744;7.086;2022-12-07T02:50:59;18.17;;;12.47;;
15764;SDS011;7983;50.744;7.086;2022-12-07T02:56:26;16.03;;;11.73;;
15764;SDS011;7983;50.744;7.086;2022-12-07T02:59:09;17.00;;;12.60;;
15764;SDS011;7983;50.744;7.086;2022-12-07T03:13:27;12.90;;;10.53;;
15764;SDS011;7983;50.744;7.086;2022-12-07T03:15:45;15.93;;;11.60;;
15764;SDS011;7983;50.744;7.086;2022-12-07T03:18:21;13.33;;;11.07;;
15764;SDS011;7983;50.744;7.086;2022-12-07T03:20:53;16.80;;;12.70;;
15764;SDS011;7983;50.744;7.086;2022-12-07T03:23:24;15.87;;;12.13;;
15764;SDS011;7983;50.744;7.086;2022-12-07T03:25:52;15.80;;;12.23;;
15764;SDS011;7983;50.744;7.086;2022-12-07T03:28:23;14.03;;;11.10;;
15764;SDS011;7983;50.744;7.086;2022-12-07T03:30:52;16.30;;;11.97;;
15764;SDS011;7983;50.744;7.086;2022-12-07T03:33:56;14.30;;;10.73;;
15764;SDS011;7983;50.744;7.086;2022-12-07T03:36:47;14.43;;;10.97;;
15764;SDS011;7983;50.744;7.086;2022-12-07T03:41:48;15.33;;;10.87;;
15764;SDS011;7983;50.744;7.086;2022-12-07T03:44:14;16.37;;;12.50;;
15764;SDS011;7983;50.744;7.086;2022-12-07T03:54:30;13.57;;;11.23;;
15764;SDS011;7983;50.744;7.086;2022-12-07T03:57:00;14.33;;;11.47;;
15764;SDS011;7983;50.744;7.086;2022-12-07T03:59:30;17.07;;;12.00;;
15764;SDS011;7983;50.744;7.086;2022-12-07T04:01:56;13.97;;;11.77;;
15764;SDS011;7983;50.744;7.086;2022-12-07T04:04:31;14.57;;;11.10;;
15764;SDS011;7983;50.744;7.086;2022-12-07T04:06:57;16.80;;;12.10;;
15764;SDS011;7983;50.744;7.086;2022-12-07T04:09:25;15.50;;;11.50;;
15764;SDS011;7983;50.744;7.086;2022-12-07T04:11:51;12.63;;;11.07;;
15764;SDS011;7983;50.744;7.086;2022-12-07T04:14:16;13.90;;;11.23;;
15764;SDS011;7983;50.744;7.086;2022-12-07T04:19:16;14.77;;;11.07;;
15764;SDS011;7983;50.744;7.086;2022-12-07T04:21:43;16.80;;;11.67;;
15764;SDS011;7983;50.744;7.086;2022-12-07T04:24:09;15.63;;;12.40;;
15764;SDS011;7983;50.744;7.086;2022-12-07T04:26:34;16.87;;;13.23;;
15764;SDS011;7983;50.744;7.086;2022-12-07T04:29:00;17.03;;;12.83;;
15764;SDS011;7983;50.744;7.086;2022-12-07T04:31:28;17.43;;;13.00;;
15764;SDS011;7983;50.744;7.086;2022-12-07T04:33:53;15.13;;;12.07;;
15764;SDS011;7983;50.744;7.086;2022-12-07T04:36:19;15.97;;;11.23;;
15764;SDS011;7983;50.744;7.086;2022-12-07T04:38:45;15.77;;;12.03;;
15764;SDS011;7983;50.744;7.086;2022-12-07T04:41:11;16.43;;;12.57;;
15764;SDS011;7983;50.744;7.086;2022-12-07T04:43:37;17.13;;;12.83;;
15764;SDS011;7983;50.744;7.086;2022-12-07T04:46:03;14.87;;;12.17;;
15764;SDS011;7983;50.744;7.086;2022-12-07T04:48:31;17.63;;;13.03;;
15764;SDS011;7983;50.744;7.086;2022-12-07T04:51:00;21.57;;;13.40;;
15764;SDS011;7983;50.744;7.086;2022-12-07T04:53:29;16.67;;;13.27;;
15764;SDS011;7983;50.744;7.086;2022-12-07T04:55:57;20.00;;;12.17;;
15764;SDS011;7983;50.744;7.086;2022-12-07T04:58:25;16.83;;;12.00;;
15764;SDS011;7983;50.744;7.086;2022-12-07T05:00:54;14.80;;;11.40;;
15764;SDS011;7983;50.744;7.086;2022-12-07T05:03:22;14.37;;;11.53;;
15764;SDS011;7983;50.744;7.086;2022-12-07T05:05:48;16.47;;;11.20;;
15764;SDS011;7983;50.744;7.086;2022-12-07T05:08:16;15.07;;;10.70;;
15764;SDS011;7983;50.744;7.086;2022-12-07T05:10:41;15.63;;;11.00;;
15764;SDS011;7983;50.744;7.086;2022-12-07T05:13:07;14.80;;;11.33;;
15764;SDS011;7983;50.744;7.086;2022-12-07T05:15:33;15.23;;;11.13;;
15764;SDS011;7983;50.744;7.086;2022-12-07T05:18:01;15.60;;;11.27;;
15764;SDS011;7983;50.744;7.086;2022-12-07T05:20:31;12.40;;;10.23;;
15764;SDS011;7983;50.744;7.086;2022-12-07T05:22:57;12.73;;;10.80;;
15764;SDS011;7983;50.744;7.086;2022-12-07T05:25:23;12.63;;;10.00;;
15764;SDS011;7983;50.744;7.086;2022-12-07T05:27:49;12.77;;;9.83;;
15764;SDS011;7983;50.744;7.086;2022-12-07T05:30:15;13.27;;;10.00;;
15764;SDS011;7983;50.744;7.086;2022-12-07T05:32:43;13.97;;;10.03;;
15764;SDS011;7983;50.744;7.086;2022-12-07T05:35:09;13.13;;;10.00;;
15764;SDS011;7983;50.744;7.086;2022-12-07T05:37:35;15.17;;;9.87;;
15764;SDS011;7983;50.744;7.086;2022-12-07T05:40:00;13.77;;;10.37;;
15764;SDS011;7983;50.744;7.086;2022-12-07T05:42:28;15.17;;;11.13;;
15764;SDS011;7983;50.744;7.086;2022-12-07T05:44:56;15.90;;;11.20;;
15764;SDS011;7983;50.744;7.086;2022-12-07T05:47:22;14.07;;;10.80;;
15764;SDS011;7983;50.744;7.086;2022-12-07T05:49:48;15.97;;;10.77;;
15764;SDS011;7983;50.744;7.086;2022-12-07T05:52:57;16.17;;;12.13;;
15764;SDS011;7983;50.744;7.086;2022-12-07T05:55:23;17.90;;;12.93;;
15764;SDS011;7983;50.744;7.086;2022-12-07T05:57:48;17.73;;;12.57;;
15764;SDS011;7983;50.744;7.086;2022-12-07T06:00:33;14.73;;;11.20;;
15764;SDS011;7983;50.744;7.086;2022-12-07T06:02:58;17.47;;;10.83;;
15764;SDS011;7983;50.744;7.086;2022-12-07T06:05:24;15.33;;;11.37;;
15764;SDS011;7983;50.744;7.086;2022-12-07T06:07:52;16.77;;;11.40;;
15764;SDS011;7983;50.744;7.086;2022-12-07T06:10:17;15.07;;;10.87;;
15764;SDS011;7983;50.744;7.086;2022-12-07T06:12:43;15.30;;;11.13;;
15764;SDS011;7983;50.744;7.086;2022-12-07T06:15:11;14.53;;;10.13;;
15764;SDS011;7983;50.744;7.086;2022-12-07T06:17:38;16.73;;;11.33;;
15764;SDS011;7983;50.744;7.086;2022-12-07T06:20:04;14.80;;;10.77;;
15764;SDS011;7983;50.744;7.086;2022-12-07T06:22:32;15.10;;;11.00;;
15764;SDS011;7983;50.744;7.086;2022-12-07T06:25:03;16.30;;;11.90;;
15764;SDS011;7983;50.744;7.086;2022-12-07T06:27:29;15.70;;;10.57;;
15764;SDS011;7983;50.744;7.086;2022-12-07T06:29:54;14.67;;;10.57;;
15764;SDS011;7983;50.744;7.086;2022-12-07T06:32:20;19.07;;;11.20;;
15764;SDS011;7983;50.744;7.086;2022-12-07T06:34:46;13.37;;;10.07;;
15764;SDS011;7983;50.744;7.086;2022-12-07T06:37:13;13.07;;;9.37;;
15764;SDS011;7983;50.744;7.086;2022-12-07T06:39:39;13.80;;;10.40;;
15764;SDS011;7983;50.744;7.086;2022-12-07T06:42:09;13.27;;;9.87;;
15764;SDS011;7983;50.744;7.086;2022-12-07T06:44:37;12.93;;;9.53;;
15764;SDS011;7983;50.744;7.086;2022-12-07T06:47:03;13.03;;;9.53;;
15764;SDS011;7983;50.744;7.086;2022-12-07T06:49:29;12.27;;;9.00;;
15764;SDS011;7983;50.744;7.086;2022-12-07T06:51:57;15.93;;;10.67;;
15764;SDS011;7983;50.744;7.086;2022-12-07T06:54:22;12.97;;;9.20;;
15764;SDS011;7983;50.744;7.086;2022-12-07T06:56:48;12.23;;;9.23;;
15764;SDS011;7983;50.744;7.086;2022-12-07T06:59:14;13.87;;;9.83;;
15764;SDS011;7983;50.744;7.086;2022-12-07T07:01:40;12.37;;;9.00;;
15764;SDS011;7983;50.744;7.086;2022-12-07T07:04:05;13.97;;;8.93;;
15764;SDS011;7983;50.744;7.086;2022-12-07T07:06:31;12.80;;;8.93;;
15764;SDS011;7983;50.744;7.086;2022-12-07T07:08:56;14.77;;;8.87;;
15764;SDS011;7983;50.744;7.086;2022-12-07T07:11:22;12.27;;;9.10;;
15764;SDS011;7983;50.744;7.086;2022-12-07T07:13:48;12.50;;;9.07;;
15764;SDS011;7983;50.744;7.086;2022-12-07T07:16:16;12.30;;;9.10;;
15764;SDS011;7983;50.744;7.086;2022-12-07T07:18:47;11.43;;;8.83;;
15764;SDS011;7983;50.744;7.086;2022-12-07T07:21:13;14.43;;;8.97;;
15764;SDS011;7983;50.744;7.086;2022-12-07T07:23:39;11.63;;;8.73;;
15764;SDS011;7983;50.744;7.086;2022-12-07T07:26:07;10.30;;;7.90;;
15764;SDS011;7983;50.744;7.086;2022-12-07T07:28:35;11.27;;;8.07;;
15764;SDS011;7983;50.744;7.086;2022-12-07T07:31:00;12.33;;;7.93;;
15764;SDS011;7983;50.744;7.086;2022-12-07T07:33:26;11.37;;;7.83;;
15764;SDS011;7983;50.744;7.086;2022-12-07T07:41:24;9.73;;;7.90;;
15764;SDS011;7983;50.744;7.086;2022-12-07T07:43:50;9.73;;;7.17;;
15764;SDS011;7983;50.744;7.086;2022-12-07T07:46:24;9.87;;;7.77;;
15764;SDS011;7983;50.744;7.086;2022-12-07T07:48:49;11.67;;;8.33;;
15764;SDS011;7983;50.744;7.086;2022-12-07T07:51:24;10.20;;;7.73;;
15764;SDS011;7983;50.744;7.086;2022-12-07T07:53:52;12.57;;;7.97;;
15764;SDS011;7983;50.744;7.086;2022-12-07T07:56:19;11.00;;;8.17;;
15764;SDS011;7983;50.744;7.086;2022-12-07T07:58:45;12.90;;;8.70;;
15764;SDS011;7983;50.744;7.086;2022-12-07T08:01:11;13.17;;;9.40;;
15764;SDS011;7983;50.744;7.086;2022-12-07T08:03:39;14.13;;;9.90;;
15764;SDS011;7983;50.744;7.086;2022-12-07T08:06:05;13.27;;;9.13;;
15764;SDS011;7983;50.744;7.086;2022-12-07T08:08:31;14.23;;;9.83;;
15764;SDS011;7983;50.744;7.086;2022-12-07T08:11:00;12.53;;;8.77;;
15764;SDS011;7983;50.744;7.086;2022-12-07T08:13:29;14.97;;;10.50;;
15764;SDS011;7983;50.744;7.086;2022-12-07T08:15:55;13.60;;;10.13;;
15764;SDS011;7983;50.744;7.086;2022-12-07T08:18:20;14.23;;;10.83;;
15764;SDS011;7983;50.744;7.086;2022-12-07T08:20:49;14.10;;;10.30;;
15764;SDS011;7983;50.744;7.086;2022-12-07T08:23:21;14.67;;;10.17;;
15764;SDS011;7983;50.744;7.086;2022-12-07T08:25:54;14.40;;;10.33;;
15764;SDS011;7983;50.744;7.086;2022-12-07T08:28:20;16.17;;;9.97;;
15764;SDS011;7983;50.744;7.086;2022-12-07T08:30:46;15.50;;;9.40;;
15764;SDS011;7983;50.744;7.086;2022-12-07T08:33:11;14.67;;;10.20;;
15764;SDS011;7983;50.744;7.086;2022-12-07T08:35:45;13.07;;;9.67;;
15764;SDS011;7983;50.744;7.086;2022-12-07T08:38:11;14.30;;;10.20;;
15764;SDS011;7983;50.744;7.086;2022-12-07T08:40:36;13.37;;;9.40;;
15764;SDS011;7983;50.744;7.086;2022-12-07T08:43:05;12.17;;;8.70;;
15764;SDS011;7983;50.744;7.086;2022-12-07T08:45:30;13.23;;;8.50;;
15764;SDS011;7983;50.744;7.086;2022-12-07T08:48:10;16.40;;;9.13;;
15764;SDS011;7983;50.744;7.086;2022-12-07T08:50:44;14.60;;;9.73;;
15764;SDS011;7983;50.744;7.086;2022-12-07T08:53:13;13.50;;;10.07;;
15764;SDS011;7983;50.744;7.086;2022-12-07T08:58:33;15.10;;;9.10;;
15764;SDS011;7983;50.744;7.086;2022-12-07T09:01:03;13.60;;;10.30;;
15764;SDS011;7983;50.744;7.086;2022-12-07T09:03:56;13.63;;;10.07;;
15764;SDS011;7983;50.744;7.086;2022-12-07T09:06:27;13.03;;;9.03;;
15764;SDS011;7983;50.744;7.086;2022-12-07T09:08:54;12.77;;;8.67;;
15764;SDS011;7983;50.744;7.086;2022-12-07T09:11:23;11.33;;;7.63;;
15764;SDS011;7983;50.744;7.086;2022-12-07T09:13:48;13.37;;;10.13;;
15764;SDS011;7983;50.744;7.086;2022-12-07T09:16:14;11.73;;;8.30;;
15764;SDS011;7983;50.744;7.086;2022-12-07T09:21:28;14.63;;;9.90;;
15764;SDS011;7983;50.744;7.086;2022-12-07T09:23:54;12.37;;;8.87;;
15764;SDS011;7983;50.744;7.086;2022-12-07T09:26:25;13.63;;;9.50;;
15764;SDS011;7983;50.744;7.086;2022-12-07T09:28:51;13.10;;;9.27;;
15764;SDS011;7983;50.744;7.086;2022-12-07T09:31:22;12.90;;;9.03;;
15764;SDS011;7983;50.744;7.086;2022-12-07T09:33:52;11.07;;;8.13;;
15764;SDS011;7983;50.744;7.086;2022-12-07T09:36:25;12.97;;;7.80;;
15764;SDS011;7983;50.744;7.086;2022-12-07T09:38:54;11.47;;;8.27;;
15764;SDS011;7983;50.744;7.086;2022-12-07T09:41:20;10.10;;;7.87;;
15764;SDS011;7983;50.744;7.086;2022-12-07T09:44:07;14.37;;;8.40;;
15764;SDS011;7983;50.744;7.086;2022-12-07T09:47:02;11.03;;;8.13;;
15764;SDS011;7983;50.744;7.086;2022-12-07T09:52:32;13.17;;;8.67;;
15764;SDS011;7983;50.744;7.086;2022-12-07T09:54:58;12.80;;;7.87;;
15764;SDS011;7983;50.744;7.086;2022-12-07T09:57:29;11.63;;;7.80;;
15764;SDS011;7983;50.744;7.086;2022-12-07T09:59:59;12.87;;;8.20;;
15764;SDS011;7983;50.744;7.086;2022-12-07T10:02:47;11.13;;;7.33;;
15764;SDS011;7983;50.744;7.086;2022-12-07T10:05:36;11.30;;;7.60;;
15764;SDS011;7983;50.744;7.086;2022-12-07T10:08:12;10.87;;;7.23;;
15764;SDS011;7983;50.744;7.086;2022-12-07T10:10:38;11.03;;;7.83;;
15764;SDS011;7983;50.744;7.086;2022-12-07T10:15:56;9.60;;;6.90;;
15764;SDS011;7983;50.744;7.086;2022-12-07T10:18:36;12.40;;;6.67;;
15764;SDS011;7983;50.744;7.086;2022-12-07T10:21:27;8.50;;;6.40;;
15764;SDS011;7983;50.744;7.086;2022-12-07T10:26:41;9.07;;;5.83;;
15764;SDS011;7983;50.744;7.086;2022-12-07T10:29:37;8.07;;;5.80;;
15764;SDS011;7983;50.744;7.086;2022-12-07T10:32:29;11.63;;;6.47;;
15764;SDS011;7983;50.744;7.086;2022-12-07T10:37:52;9.93;;;6.37;;
15764;SDS011;7983;50.744;7.086;2022-12-07T10:43:57;9.53;;;6.20;;
15764;SDS011;7983;50.744;7.086;2022-12-07T11:07:34;6.70;;;4.80;;
15764;SDS011;7983;50.744;7.086;2022-12-07T11:35:30;7.73;;;5.03;;
15764;SDS011;7983;50.744;7.086;2022-12-07T11:38:22;7.30;;;4.50;;
15764;SDS011;7983;50.744;7.086;2022-12-07T11:40:58;6.23;;;4.40;;
15764;SDS011;7983;50.744;7.086;2022-12-07T11:43:37;5.33;;;3.73;;
15764;SDS011;7983;50.744;7.086;2022-12-07T11:46:17;6.80;;;4.10;;
15764;SDS011;7983;50.744;7.086;2022-12-07T11:49:02;6.57;;;4.13;;
15764;SDS011;7983;50.744;7.086;2022-12-07T11:51:49;7.00;;;3.93;;
15764;SDS011;7983;50.744;7.086;2022-12-07T11:54:23;7.23;;;4.40;;
15764;SDS011;7983;50.744;7.086;2022-12-07T11:59:53;7.73;;;4.67;;
15764;SDS011;7983;50.744;7.086;2022-12-07T12:03:18;8.63;;;4.80;;
15764;SDS011;7983;50.744;7.086;2022-12-07T12:10:48;6.47;;;3.63;;
15764;SDS011;7983;50.744;7.086;2022-12-07T12:21:40;6.03;;;4.07;;
15764;SDS011;7983;50.744;7.086;2022-12-07T12:27:07;7.20;;;4.33;;
15764;SDS011;7983;50.744;7.086;2022-12-07T12:29:41;5.87;;;3.67;;
15764;SDS011;7983;50.744;7.086;2022-12-07T12:37:54;5.23;;;4.00;;
15764;SDS011;7983;50.744;7.086;2022-12-07T12:42:52;7.20;;;4.60;;
15764;SDS011;7983;50.744;7.086;2022-12-07T12:45:31;6.00;;;4.40;;
15764;SDS011;7983;50.744;7.086;2022-12-07T12:48:01;6.53;;;4.30;;
15764;SDS011;7983;50.744;7.086;2022-12-07T12:54:14;7.13;;;3.77;;
15764;SDS011;7983;50.744;7.086;2022-12-07T12:59:29;6.03;;;3.80;;
15764;SDS011;7983;50.744;7.086;2022-12-07T13:04:49;7.40;;;3.80;;
15764;SDS011;7983;50.744;7.086;2022-12-07T13:10:42;9.67;;;4.77;;
15764;SDS011;7983;50.744;7.086;2022-12-07T13:28:50;7.63;;;4.63;;
15764;SDS011;7983;50.744;7.086;2022-12-07T13:34:27;9.60;;;5.03;;
15764;SDS011;7983;50.744;7.086;2022-12-07T13:37:24;6.87;;;4.73;;
15764;SDS011;7983;50.744;7.086;2022-12-07T13:39:59;5.87;;;4.43;;
15764;SDS011;7983;50.744;7.086;2022-12-07T13:43:02;7.47;;;4.90;;
15764;SDS011;7983;50.744;7.086;2022-12-07T13:45:44;7.07;;;4.20;;
15764;SDS011;7983;50.744;7.086;2022-12-07T13:51:26;8.23;;;4.93;;
15764;SDS011;7983;50.744;7.086;2022-12-07T13:54:00;7.03;;;5.03;;
15764;SDS011;7983;50.744;7.086;2022-12-07T13:56:36;8.70;;;5.37;;
15764;SDS011;7983;50.744;7.086;2022-12-07T14:02:17;6.80;;;4.90;;
15764;SDS011;7983;50.744;7.086;2022-12-07T14:07:53;8.63;;;4.70;;
15764;SDS011;7983;50.744;7.086;2022-12-07T14:10:25;5.60;;;4.20;;
15764;SDS011;7983;50.744;7.086;2022-12-07T14:13:00;6.57;;;4.20;;
15764;SDS011;7983;50.744;7.086;2022-12-07T14:15:31;5.53;;;3.60;;
15764;SDS011;7983;50.744;7.086;2022-12-07T14:18:24;4.40;;;3.13;;
15764;SDS011;7983;50.744;7.086;2022-12-07T14:21:06;5.30;;;3.20;;
15764;SDS011;7983;50.744;7.086;2022-12-07T14:23:37;4.03;;;3.10;;
15764;SDS011;7983;50.744;7.086;2022-12-07T14:26:22;7.03;;;3.50;;
15764;SDS011;7983;50.744;7.086;2022-12-07T14:29:18;4.07;;;3.23;;
15764;SDS011;7983;50.744;7.086;2022-12-07T14:31:54;3.13;;;2.50;;
15764;SDS011;7983;50.744;7.086;2022-12-07T14:34:20;3.13;;;2.13;;
15764;SDS011;7983;50.744;7.086;2022-12-07T14:36:46;2.77;;;1.80;;
15764;SDS011;7983;50.744;7.086;2022-12-07T14:39:12;2.63;;;1.70;;
15764;SDS011;7983;50.744;7.086;2022-12-07T14:41:40;2.60;;;1.70;;
15764;SDS011;7983;50.744;7.086;2022-12-07T14:44:22;2.67;;;1.80;;
15764;SDS011;7983;50.744;7.086;2022-12-07T14:46:54;1.87;;;1.47;;
15764;SDS011;7983;50.744;7.086;2022-12-07T14:49:20;2.03;;;1.63;;
15764;SDS011;7983;50.744;7.086;2022-12-07T14:51:48;3.17;;;2.03;;
15764;SDS011;7983;50.744;7.086;2022-12-07T14:54:15;2.23;;;1.87;;
15764;SDS011;7983;50.744;7.086;2022-12-07T14:56:49;3.57;;;2.40;;
15764;SDS011;7983;50.744;7.086;2022-12-07T14:59:16;3.80;;;2.70;;
15764;SDS011;7983;50.744;7.086;2022-12-07T15:01:46;3.67;;;2.53;;
15764;SDS011;7983;50.744;7.086;2022-12-07T15:04:13;5.33;;;3.07;;
15764;SDS011;7983;50.744;7.086;2022-12-07T15:06:58;4.50;;;3.00;;
15764;SDS011;7983;50.744;7.086;2022-12-07T15:09:39;4.53;;;3.03;;
15764;SDS011;7983;50.744;7.086;2022-12-07T15:12:05;4.67;;;3.17;;
15764;SDS011;7983;50.744;7.086;2022-12-07T15:14:50;4.60;;;3.17;;
15764;SDS011;7983;50.744;7.086;2022-12-07T15:17:18;4.90;;;3.50;;
15764;SDS011;7983;50.744;7.086;2022-12-07T15:19:44;4.73;;;3.10;;
15764;SDS011;7983;50.744;7.086;2022-12-07T15:22:27;5.73;;;3.27;;
15764;SDS011;7983;50.744;7.086;2022-12-07T15:24:54;6.00;;;3.57;;
15764;SDS011;7983;50.744;7.086;2022-12-07T15:27:23;5.87;;;4.03;;
15764;SDS011;7983;50.744;7.086;2022-12-07T15:29:48;6.07;;;4.00;;
15764;SDS011;7983;50.744;7.086;2022-12-07T15:32:18;5.47;;;3.93;;
15764;SDS011;7983;50.744;7.086;2022-12-07T15:34:47;6.20;;;3.50;;
15764;SDS011;7983;50.744;7.086;2022-12-07T15:37:15;5.20;;;3.50;;
15764;SDS011;7983;50.744;7.086;2022-12-07T15:39:43;6.40;;;3.73;;
15764;SDS011;7983;50.744;7.086;2022-12-07T15:42:09;4.97;;;3.77;;
15764;SDS011;7983;50.744;7.086;2022-12-07T15:44:46;8.93;;;4.53;;
15764;SDS011;7983;50.744;7.086;2022-12-07T15:47:38;6.60;;;4.23;;
15764;SDS011;7983;50.744;7.086;2022-12-07T15:50:13;4.23;;;3.50;;
15764;SDS011;7983;50.744;7.086;2022-12-07T15:52:47;6.40;;;4.03;;
15764;SDS011;7983;50.744;7.086;2022-12-07T15:55:13;5.70;;;4.07;;
15764;SDS011;7983;50.744;7.086;2022-12-07T15:57:38;5.20;;;4.20;;
15764;SDS011;7983;50.744;7.086;2022-12-07T16:00:05;5.97;;;3.87;;
15764;SDS011;7983;50.744;7.086;2022-12-07T16:02:34;8.53;;;4.73;;
15764;SDS011;7983;50.744;7.086;2022-12-07T16:05:04;6.00;;;4.27;;
15764;SDS011;7983;50.744;7.086;2022-12-07T16:07:29;6.30;;;4.30;;
15764;SDS011;7983;50.744;7.086;2022-12-07T16:10:00;7.23;;;4.53;;
15764;SDS011;7983;50.744;7.086;2022-12-07T16:12:25;6.70;;;4.70;;
15764;SDS011;7983;50.744;7.086;2022-12-07T16:14:51;5.77;;;4.30;;
15764;SDS011;7983;50.744;7.086;2022-12-07T16:17:25;6.57;;;4.43;;
15764;SDS011;7983;50.744;7.086;2022-12-07T16:19:50;5.83;;;4.63;;
15764;SDS011;7983;50.744;7.086;2022-12-07T16:22:17;6.93;;;4.97;;
15764;SDS011;7983;50.744;7.086;2022-12-07T16:24:54;7.27;;;4.83;;
15764;SDS011;7983;50.744;7.086;2022-12-07T16:27:19;6.63;;;4.80;;
15764;SDS011;7983;50.744;7.086;2022-12-07T16:29:45;6.50;;;4.90;;
15764;SDS011;7983;50.744;7.086;2022-12-07T16:32:13;6.43;;;4.90;;
15764;SDS011;7983;50.744;7.086;2022-12-07T16:34:39;6.47;;;5.23;;
15764;SDS011;7983;50.744;7.086;2022-12-07T16:37:07;7.73;;;5.57;;
15764;SDS011;7983;50.744;7.086;2022-12-07T16:39:33;6.23;;;5.37;;
15764;SDS011;7983;50.744;7.086;2022-12-07T16:41:59;8.53;;;5.50;;
15764;SDS011;7983;50.744;7.086;2022-12-07T16:44:24;7.80;;;5.33;;
15764;SDS011;7983;50.744;7.086;2022-12-07T16:46:53;7.10;;;5.93;;
15764;SDS011;7983;50.744;7.086;2022-12-07T16:49:18;8.13;;;5.70;;
15764;SDS011;7983;50.744;7.086;2022-12-07T16:51:44;7.20;;;5.53;;
15764;SDS011;7983;50.744;7.086;2022-12-07T16:54:14;7.27;;;5.13;;
15764;SDS011;7983;50.744;7.086;2022-12-07T16:56:51;8.03;;;4.90;;
15764;SDS011;7983;50.744;7.086;2022-12-07T16:59:20;5.83;;;5.00;;
15764;SDS011;7983;50.744;7.086;2022-12-07T17:01:49;5.50;;;4.43;;
15764;SDS011;7983;50.744;7.086;2022-12-07T17:04:14;8.53;;;5.23;;
15764;SDS011;7983;50.744;7.086;2022-12-07T17:06:42;6.00;;;4.60;;
15764;SDS011;7983;50.744;7.086;2022-12-07T17:09:11;6.07;;;4.83;;
15764;SDS011;7983;50.744;7.086;2022-12-07T17:11:37;6.60;;;5.83;;
15764;SDS011;7983;50.744;7.086;2022-12-07T17:14:03;6.17;;;5.57;;
15764;SDS011;7983;50.744;7.086;2022-12-07T17:16:47;7.17;;;5.37;;
15764;SDS011;7983;50.744;7.086;2022-12-07T17:19:13;8.60;;;5.53;;
15764;SDS011;7983;50.744;7.086;2022-12-07T17:21:43;6.13;;;5.40;;
15764;SDS011;7983;50.744;7.086;2022-12-07T17:24:10;6.93;;;5.20;;
15764;SDS011;7983;50.744;7.086;2022-12-07T17:26:41;7.90;;;5.53;;
15764;SDS011;7983;50.744;7.086;2022-12-07T17:29:13;8.17;;;6.03;;
15764;SDS011;7983;50.744;7.086;2022-12-07T17:31:47;7.97;;;5.93;;
15764;SDS011;7983;50.744;7.086;2022-12-07T17:40:57;6.37;;;5.17;;
15764;SDS011;7983;50.744;7.086;2022-12-07T17:43:23;6.43;;;5.03;;
15764;SDS011;7983;50.744;7.086;2022-12-07T17:45:49;5.83;;;5.23;;
15764;SDS011;7983;50.744;7.086;2022-12-07T17:48:15;6.93;;;5.50;;
15764;SDS011;7983;50.744;7.086;2022-12-07T17:50:46;6.70;;;4.90;;
15764;SDS011;7983;50.744;7.086;2022-12-07T17:53:47;6.47;;;5.33;;
15764;SDS011;7983;50.744;7.086;2022-12-07T17:56:14;8.37;;;5.70;;
15764;SDS011;7983;50.744;7.086;2022-12-07T17:58:45;7.93;;;5.67;;
15764;SDS011;7983;50.744;7.086;2022-12-07T18:01:14;6.33;;;5.30;;
15764;SDS011;7983;50.744;7.086;2022-12-07T18:03:41;7.73;;;5.80;;
15764;SDS011;7983;50.744;7.086;2022-12-07T18:06:07;8.13;;;6.37;;
15764;SDS011;7983;50.744;7.086;2022-12-07T18:21:40;9.23;;;6.40;;
15764;SDS011;7983;50.744;7.086;2022-12-07T18:31:02;7.37;;;5.87;;
15764;SDS011;7983;50.744;7.086;2022-12-07T19:05:26;6.47;;;5.43;;
15764;SDS011;7983;50.744;7.086;2022-12-07T19:07:52;6.80;;;5.90;;
15764;SDS011;7983;50.744;7.086;2022-12-07T19:10:20;7.03;;;5.53;;